Terminal Aerodrome Forecast
Issued by NWS Burlington, VT

Home | Current Version | Previous Version | Text Only | Print | Product List | Glossary On
Versions: 1 2 3 4 5 6 7 8 9 10 11 12 13 14
000
FTUS41 KBTV 290531
TAFBTV
TAF
KBTV 290531Z 2906/3006 VRB03KT P6SM SCT250
     FM291200 18003KT P6SM BKN250
     FM291400 19007KT P6SM FEW045 BKN250
     FM300000 20004KT P6SM BKN150 OVC200=

USA.gov is the U.S. government's official web portal to all federal, state and local government web resources and services.